createdAt,value
2023-01-21T00:01:13.431Z,14.50
2023-01-21T00:03:41.092Z,16.93
2023-01-21T00:06:09.100Z,15.40
2023-01-21T00:08:36.405Z,15.37
2023-01-21T00:11:09.145Z,15.93
2023-01-21T00:13:36.758Z,14.47
2023-01-21T00:16:05.158Z,15.63
2023-01-21T00:18:32.997Z,15.23
2023-01-21T00:21:00.949Z,15.03
2023-01-21T00:23:28.554Z,13.63
2023-01-21T00:26:04.563Z,15.03
2023-01-21T00:28:34.577Z,15.80
2023-01-21T00:31:04.795Z,14.33
2023-01-21T00:33:33.599Z,15.50
2023-01-21T00:36:03.441Z,13.73
2023-01-21T00:38:31.531Z,15.47
2023-01-21T00:41:03.523Z,15.07
2023-01-21T00:43:31.232Z,15.03
2023-01-21T00:45:58.910Z,15.37
2023-01-21T00:48:28.477Z,14.97
2023-01-21T00:50:59.008Z,13.00
2023-01-21T00:53:27.362Z,13.80
2023-01-21T00:55:59.183Z,14.63
2023-01-21T00:58:26.558Z,15.73
2023-01-21T01:01:05.208Z,12.70
2023-01-21T01:03:33.745Z,13.77
2023-01-21T01:06:15.941Z,15.53
2023-01-21T01:08:44.605Z,15.00
2023-01-21T01:11:13.101Z,14.90
2023-01-21T01:13:40.735Z,13.00
2023-01-21T01:16:09.048Z,14.87
2023-01-21T01:18:37.270Z,14.80
2023-01-21T01:21:05.604Z,14.33
2023-01-21T01:23:33.097Z,15.43
2023-01-21T01:26:03.762Z,15.03
2023-01-21T01:28:32.229Z,15.77
2023-01-21T01:31:00.447Z,14.27
2023-01-21T01:33:28.152Z,13.30
2023-01-21T01:35:55.502Z,13.97
2023-01-21T01:38:23.365Z,15.33
2023-01-21T01:40:52.612Z,14.03
2023-01-21T01:43:24.013Z,14.57
2023-01-21T01:45:52.322Z,14.67
2023-01-21T01:48:28.511Z,15.00
2023-01-21T01:50:59.379Z,14.83
2023-01-21T01:53:27.657Z,15.63
2023-01-21T01:55:55.662Z,15.87
2023-01-21T01:58:23.140Z,16.37
2023-01-21T02:00:50.604Z,15.43
2023-01-21T02:03:36.840Z,15.27
2023-01-21T02:06:04.304Z,13.97
2023-01-21T02:08:34.415Z,15.57
2023-01-21T02:11:02.634Z,14.67
2023-01-21T02:13:33.117Z,14.73
2023-01-21T02:16:00.395Z,16.07
2023-01-21T02:18:55.599Z,15.37
2023-01-21T02:21:41.426Z,17.27
2023-01-21T02:24:17.654Z,16.30
2023-01-21T02:26:51.045Z,16.30
2023-01-21T02:29:44.384Z,17.43
2023-01-21T02:32:39.688Z,17.97
2023-01-21T02:35:28.081Z,17.77
2023-01-21T02:38:19.057Z,18.00
2023-01-21T02:41:23.132Z,17.03
2023-01-21T02:43:53.882Z,17.27
2023-01-21T02:46:33.304Z,17.13
2023-01-21T02:49:07.223Z,17.90
2023-01-21T02:51:35.643Z,17.90
2023-01-21T02:54:36.075Z,19.07
2023-01-21T02:57:03.764Z,18.63
2023-01-21T02:59:32.296Z,16.57
2023-01-21T03:02:17.430Z,17.90
2023-01-21T03:04:47.722Z,15.97
2023-01-21T03:07:28.894Z,15.80
2023-01-21T03:10:11.611Z,17.23
2023-01-21T03:13:10.553Z,16.63
2023-01-21T03:16:06.999Z,16.00
2023-01-21T03:18:40.371Z,15.70
2023-01-21T03:21:13.109Z,16.80
2023-01-21T03:23:45.120Z,17.77
2023-01-21T03:26:16.516Z,17.03
2023-01-21T03:28:52.204Z,16.53
2023-01-21T03:31:26.204Z,17.07
2023-01-21T03:33:57.275Z,16.10
2023-01-21T03:36:37.091Z,15.83
2023-01-21T03:39:13.658Z,16.60
2023-01-21T03:41:41.497Z,16.57
2023-01-21T03:44:09.318Z,17.77
2023-01-21T03:46:49.545Z,18.10
2023-01-21T03:49:23.400Z,16.93
2023-01-21T03:51:56.089Z,18.53
2023-01-21T03:54:23.755Z,16.17
2023-01-21T03:56:51.124Z,15.83
2023-01-21T03:59:18.719Z,16.13
2023-01-21T04:01:46.061Z,17.43
2023-01-21T04:04:13.434Z,16.00
2023-01-21T04:06:41.044Z,15.80
2023-01-21T04:09:09.275Z,15.20
2023-01-21T04:11:36.797Z,16.63
2023-01-21T04:14:04.127Z,16.43
2023-01-21T04:16:31.579Z,16.67
2023-01-21T04:18:58.821Z,17.47
2023-01-21T04:21:26.188Z,16.63
2023-01-21T04:23:54.021Z,16.80
2023-01-21T04:26:21.503Z,16.90
2023-01-21T04:28:48.820Z,16.73
2023-01-21T04:31:16.296Z,16.27
2023-01-21T04:33:43.563Z,15.47
2023-01-21T04:36:11.108Z,16.50
2023-01-21T04:38:38.385Z,17.37
2023-01-21T04:41:06.163Z,15.53
2023-01-21T04:43:33.463Z,16.77
2023-01-21T04:46:00.820Z,16.33
2023-01-21T04:48:28.461Z,16.57
2023-01-21T04:50:56.207Z,15.50
2023-01-21T04:53:23.717Z,16.20
2023-01-21T04:55:52.639Z,15.20
2023-01-21T04:58:20.903Z,15.43
2023-01-21T05:00:48.299Z,15.30
2023-01-21T05:03:15.877Z,15.90
2023-01-21T05:05:43.231Z,16.23
2023-01-21T05:08:10.566Z,15.57
2023-01-21T05:10:37.875Z,15.13
2023-01-21T05:13:05.282Z,15.83
2023-01-21T05:15:32.907Z,15.10
2023-01-21T05:18:00.617Z,15.27
2023-01-21T05:20:28.084Z,15.27
2023-01-21T05:22:55.383Z,15.83
2023-01-21T05:25:22.706Z,14.70
2023-01-21T05:27:54.216Z,14.23
2023-01-21T05:30:21.855Z,16.03
2023-01-21T05:32:51.375Z,14.63
2023-01-21T05:35:20.731Z,15.43
2023-01-21T05:37:48.313Z,13.90
2023-01-21T05:40:16.873Z,14.47
2023-01-21T05:42:44.545Z,14.20
2023-01-21T05:45:13.136Z,15.67
2023-01-21T05:47:40.438Z,14.20
2023-01-21T05:50:09.250Z,13.43
2023-01-21T05:52:36.521Z,14.37
2023-01-21T05:55:04.435Z,14.33
2023-01-21T05:57:31.862Z,15.27
2023-01-21T05:59:59.282Z,14.97
2023-01-21T06:02:26.630Z,14.43
2023-01-21T06:04:53.890Z,15.67
2023-01-21T06:07:21.139Z,15.00
2023-01-21T06:09:48.340Z,16.50
2023-01-21T06:12:15.604Z,14.73
2023-01-21T06:14:42.957Z,14.53
2023-01-21T06:17:10.432Z,16.17
2023-01-21T06:19:37.672Z,14.77
2023-01-21T06:22:05.282Z,14.27
2023-01-21T06:24:32.511Z,13.57
2023-01-21T06:26:59.709Z,14.90
2023-01-21T06:29:27.159Z,16.43
2023-01-21T06:31:54.712Z,14.90
2023-01-21T06:34:22.024Z,13.77
2023-01-21T06:36:49.257Z,14.23
2023-01-21T06:39:16.712Z,13.13
2023-01-21T06:41:43.994Z,13.40
2023-01-21T06:44:11.275Z,12.57
2023-01-21T06:46:43.359Z,11.27
2023-01-21T06:49:13.285Z,10.93
2023-01-21T06:51:40.692Z,11.87
2023-01-21T06:54:08.149Z,10.30
2023-01-21T06:56:36.843Z,10.07
2023-01-21T06:59:04.857Z,10.10
2023-01-21T07:01:32.716Z,8.70
2023-01-21T07:04:01.495Z,9.43
2023-01-21T07:06:29.029Z,10.60
2023-01-21T07:08:56.436Z,9.80
2023-01-21T07:11:23.805Z,10.10
2023-01-21T07:13:51.517Z,9.53
2023-01-21T07:16:18.931Z,9.27
2023-01-21T07:18:46.344Z,10.17
2023-01-21T07:21:13.965Z,9.37
2023-01-21T07:23:41.534Z,9.70
2023-01-21T07:26:09.043Z,9.73
2023-01-21T07:28:36.691Z,10.93
2023-01-21T07:31:04.739Z,10.50
2023-01-21T07:33:32.308Z,10.23
2023-01-21T07:35:59.651Z,10.53
2023-01-21T07:38:27.929Z,9.20
2023-01-21T07:40:55.706Z,9.73
2023-01-21T07:43:23.072Z,11.13
2023-01-21T07:45:51.580Z,10.50
2023-01-21T07:48:19.015Z,10.17
2023-01-21T07:50:46.377Z,9.30
2023-01-21T07:53:14.069Z,11.20
2023-01-21T07:55:41.671Z,11.43
2023-01-21T07:58:10.660Z,9.87
2023-01-21T08:00:38.048Z,9.83
2023-01-21T08:03:05.516Z,10.43
2023-01-21T08:05:33.225Z,11.03
2023-01-21T08:08:00.653Z,10.93
2023-01-21T08:10:28.051Z,10.33
2023-01-21T08:12:55.844Z,11.70
2023-01-21T08:15:23.186Z,11.10
2023-01-21T08:17:50.663Z,11.93
2023-01-21T08:20:18.265Z,10.60
2023-01-21T08:22:45.645Z,10.27
2023-01-21T08:25:13.093Z,11.50
2023-01-21T08:27:40.571Z,11.27
2023-01-21T08:30:08.650Z,10.80
2023-01-21T08:32:36.084Z,8.43
2023-01-21T08:35:03.807Z,9.87
2023-01-21T08:37:31.350Z,8.60
2023-01-21T08:39:58.720Z,9.30
2023-01-21T08:42:26.088Z,10.23
2023-01-21T08:44:54.024Z,9.47
2023-01-21T08:47:21.499Z,10.43
2023-01-21T08:49:48.923Z,8.63
2023-01-21T08:52:17.118Z,10.27
2023-01-21T08:54:44.428Z,8.40
2023-01-21T08:57:11.937Z,9.67
2023-01-21T08:59:39.810Z,8.67
2023-01-21T09:02:08.618Z,9.30
2023-01-21T09:04:36.104Z,8.60
2023-01-21T09:07:03.480Z,8.77
2023-01-21T09:09:30.809Z,9.27
2023-01-21T09:11:58.197Z,9.17
2023-01-21T09:14:27.022Z,9.23
2023-01-21T09:16:55.771Z,7.70
2023-01-21T09:19:23.982Z,7.97
2023-01-21T09:21:55.499Z,7.37
2023-01-21T09:24:23.517Z,9.23
2023-01-21T09:26:50.909Z,6.47
2023-01-21T09:29:18.396Z,8.47
2023-01-21T09:31:45.774Z,8.40
2023-01-21T09:34:13.763Z,8.63
2023-01-21T09:36:41.201Z,8.40
2023-01-21T09:39:08.498Z,8.47
2023-01-21T09:41:50.337Z,6.83
2023-01-21T09:44:35.059Z,6.93
2023-01-21T09:47:41.289Z,6.50
2023-01-21T09:50:22.029Z,6.23
2023-01-21T09:52:53.366Z,7.20
2023-01-21T09:55:36.203Z,6.80
2023-01-21T09:58:24.657Z,6.10
2023-01-21T10:01:04.360Z,7.03
2023-01-21T10:03:40.957Z,6.57
2023-01-21T10:06:49.646Z,6.60
2023-01-21T10:09:41.195Z,6.23
2023-01-21T10:12:26.168Z,6.40
2023-01-21T10:15:37.791Z,6.73
2023-01-21T10:18:11.541Z,6.27
2023-01-21T10:20:56.194Z,6.57
2023-01-21T10:23:43.073Z,5.90
2023-01-21T10:26:13.400Z,5.50
2023-01-21T10:28:49.385Z,5.90
2023-01-21T10:31:28.666Z,6.20
2023-01-21T10:33:56.465Z,6.47
2023-01-21T10:36:36.395Z,5.97
2023-01-21T10:39:23.010Z,5.37
2023-01-21T10:42:25.633Z,6.47
2023-01-21T10:45:03.712Z,5.40
2023-01-21T10:47:50.188Z,6.77
2023-01-21T10:50:54.413Z,7.27
2023-01-21T10:53:34.569Z,6.37
2023-01-21T10:56:11.094Z,7.23
2023-01-21T10:58:44.673Z,7.40
2023-01-21T11:01:35.405Z,7.97
2023-01-21T11:04:15.165Z,6.43
2023-01-21T11:06:45.599Z,7.47
2023-01-21T11:09:15.188Z,7.50
2023-01-21T11:11:42.978Z,8.10
2023-01-21T11:14:10.565Z,7.73
2023-01-21T11:16:48.673Z,7.13
2023-01-21T11:19:31.675Z,8.10
2023-01-21T11:22:20.802Z,9.70
2023-01-21T11:24:53.976Z,7.90
2023-01-21T11:27:39.124Z,7.93
2023-01-21T11:30:31.501Z,8.43
2023-01-21T11:33:21.896Z,7.90
2023-01-21T11:35:50.486Z,8.33
2023-01-21T11:38:29.794Z,7.37
2023-01-21T11:41:05.393Z,8.90
2023-01-21T11:43:42.667Z,7.83
2023-01-21T11:46:29.460Z,9.50
2023-01-21T11:49:21.281Z,7.23
2023-01-21T11:51:49.434Z,8.73
2023-01-21T11:54:22.103Z,9.00
2023-01-21T11:56:58.385Z,7.27
2023-01-21T11:59:33.793Z,7.73
2023-01-21T12:02:10.928Z,7.67
2023-01-21T12:04:47.164Z,8.80
2023-01-21T12:07:21.265Z,7.73
2023-01-21T12:09:55.100Z,8.03
2023-01-21T12:12:30.226Z,8.40
2023-01-21T12:15:13.444Z,7.90
2023-01-21T12:18:01.364Z,8.03
2023-01-21T12:20:48.170Z,7.67
2023-01-21T12:23:49.522Z,7.90
2023-01-21T12:26:36.017Z,8.27
2023-01-21T12:29:33.767Z,8.87
2023-01-21T12:32:04.166Z,9.60
2023-01-21T12:34:35.085Z,8.90
2023-01-21T12:37:12.052Z,7.60
2023-01-21T12:39:42.382Z,7.47
2023-01-21T12:42:15.790Z,7.90
2023-01-21T12:44:48.712Z,9.73
2023-01-21T12:47:25.485Z,8.00
2023-01-21T12:50:06.893Z,8.90
2023-01-21T12:53:03.764Z,8.43
2023-01-21T12:55:45.412Z,7.57
2023-01-21T12:58:16.912Z,7.57
2023-01-21T13:00:47.656Z,7.60
2023-01-21T13:03:37.740Z,8.33
2023-01-21T13:06:18.781Z,7.10
2023-01-21T13:09:11.756Z,7.07
2023-01-21T13:12:14.367Z,6.43
2023-01-21T13:14:48.440Z,8.10
2023-01-21T13:17:21.978Z,7.93
2023-01-21T13:19:49.672Z,6.40
2023-01-21T13:22:25.896Z,7.40
2023-01-21T13:25:21.309Z,8.17
2023-01-21T13:27:55.010Z,6.67
2023-01-21T13:30:43.775Z,8.03
2023-01-21T13:33:33.810Z,6.83
2023-01-21T13:36:09.202Z,6.97
2023-01-21T13:38:48.676Z,7.87
2023-01-21T13:41:23.081Z,6.33
2023-01-21T13:43:56.248Z,7.70
2023-01-21T13:46:52.630Z,7.17
2023-01-21T13:50:00.805Z,7.43
2023-01-21T13:52:52.920Z,6.83
2023-01-21T13:55:33.546Z,6.47
2023-01-21T13:58:06.531Z,6.63
2023-01-21T14:00:43.442Z,6.17
2023-01-21T14:03:29.103Z,8.20
2023-01-21T14:06:03.563Z,5.70
2023-01-21T14:08:58.925Z,6.60
2023-01-21T14:11:37.667Z,6.00
2023-01-21T14:14:17.475Z,6.40
2023-01-21T14:17:02.409Z,6.70
2023-01-21T14:19:55.104Z,7.20
2023-01-21T14:23:01.228Z,6.53
2023-01-21T14:26:03.097Z,7.50
2023-01-21T14:28:43.183Z,7.00
2023-01-21T14:31:41.293Z,7.13
2023-01-21T14:34:27.344Z,7.53
2023-01-21T14:37:07.483Z,8.20
2023-01-21T14:39:49.512Z,8.50
2023-01-21T14:42:18.909Z,8.57
2023-01-21T14:44:48.960Z,7.50
2023-01-21T14:47:25.104Z,7.67
2023-01-21T14:49:53.959Z,7.73
2023-01-21T14:52:36.018Z,7.67
2023-01-21T14:55:04.239Z,7.67
2023-01-21T14:57:34.887Z,7.87
2023-01-21T15:00:28.924Z,8.00
2023-01-21T15:03:02.800Z,8.60
2023-01-21T15:05:35.906Z,8.37
2023-01-21T15:08:18.754Z,8.30
2023-01-21T15:11:18.288Z,8.83
2023-01-21T15:13:45.919Z,9.63
2023-01-21T15:16:36.362Z,8.80
2023-01-21T15:19:14.650Z,7.10
2023-01-21T15:21:44.797Z,7.77
2023-01-21T15:24:18.523Z,7.03
2023-01-21T15:27:03.455Z,7.70
2023-01-21T15:29:39.063Z,7.20
2023-01-21T15:32:45.403Z,7.40
2023-01-21T15:35:45.455Z,7.87
2023-01-21T15:38:15.267Z,6.87
2023-01-21T15:40:51.174Z,7.17
2023-01-21T15:43:49.701Z,8.57
2023-01-21T15:46:28.996Z,7.07
2023-01-21T15:49:00.491Z,8.13
2023-01-21T15:52:05.822Z,6.97
2023-01-21T15:55:03.840Z,8.27
2023-01-21T15:57:50.887Z,7.93
2023-01-21T16:00:41.665Z,8.20
2023-01-21T16:03:30.480Z,7.50
2023-01-21T16:06:06.162Z,7.23
2023-01-21T16:08:52.942Z,7.10
2023-01-21T16:11:37.986Z,7.23
2023-01-21T16:14:39.829Z,8.40
2023-01-21T16:17:46.323Z,8.37
2023-01-21T16:20:16.496Z,7.83
2023-01-21T16:22:46.908Z,7.57
2023-01-21T16:25:19.067Z,8.67
2023-01-21T16:27:48.774Z,8.30
2023-01-21T16:30:21.138Z,9.13
2023-01-21T16:33:07.160Z,8.00
2023-01-21T16:35:56.113Z,7.67
2023-01-21T16:38:29.410Z,8.23
2023-01-21T16:41:24.014Z,8.10
2023-01-21T16:44:00.258Z,9.10
2023-01-21T16:46:37.514Z,7.80
2023-01-21T16:49:15.255Z,10.53
2023-01-21T16:51:52.549Z,8.37
2023-01-21T16:54:19.761Z,8.03
2023-01-21T16:56:53.646Z,8.40
2023-01-21T16:59:26.419Z,9.03
2023-01-21T17:01:55.315Z,8.80
2023-01-21T17:04:22.821Z,8.60
2023-01-21T17:06:51.690Z,8.70
2023-01-21T17:09:28.582Z,7.87
2023-01-21T17:11:58.105Z,9.30
2023-01-21T17:14:29.556Z,9.87
2023-01-21T17:17:00.070Z,8.43
2023-01-21T17:19:35.262Z,7.63
2023-01-21T17:22:15.173Z,7.47
2023-01-21T17:24:57.111Z,7.47
2023-01-21T17:27:26.373Z,8.57
2023-01-21T17:29:53.782Z,8.47
2023-01-21T17:32:31.715Z,9.57
2023-01-21T17:35:22.744Z,9.23
2023-01-21T17:37:56.925Z,7.93
2023-01-21T17:40:33.233Z,9.87
2023-01-21T17:43:10.052Z,8.93
2023-01-21T17:45:43.817Z,8.97
2023-01-21T17:48:36.347Z,9.27
2023-01-21T17:51:13.762Z,9.27
2023-01-21T17:54:00.398Z,9.33
2023-01-21T17:56:57.150Z,8.90
2023-01-21T17:59:41.477Z,9.13
2023-01-21T18:02:13.926Z,9.43
2023-01-21T18:04:41.324Z,9.73
2023-01-21T18:07:26.911Z,9.37
2023-01-21T18:09:55.265Z,8.73
2023-01-21T18:12:22.649Z,8.20
2023-01-21T18:14:50.056Z,9.20
2023-01-21T18:17:19.607Z,9.33
2023-01-21T18:19:47.062Z,9.43
2023-01-21T18:22:29.584Z,9.83
2023-01-21T18:24:56.840Z,9.40
2023-01-21T18:27:26.299Z,10.67
2023-01-21T18:29:54.309Z,9.53
2023-01-21T18:32:21.766Z,8.47
2023-01-21T18:34:49.107Z,9.77
2023-01-21T18:37:18.431Z,9.67
2023-01-21T18:39:46.488Z,9.03
2023-01-21T18:42:17.921Z,8.33
2023-01-21T18:44:45.388Z,9.13
2023-01-21T18:47:14.360Z,9.37
2023-01-21T18:49:42.545Z,8.90
2023-01-21T18:52:16.496Z,9.07
2023-01-21T18:54:43.769Z,8.97
2023-01-21T18:57:14.229Z,8.73
2023-01-21T18:59:41.605Z,9.33
2023-01-21T19:02:18.474Z,8.80
2023-01-21T19:04:47.058Z,8.67
2023-01-21T19:07:21.850Z,8.07
2023-01-21T19:09:51.020Z,8.30
2023-01-21T19:12:21.040Z,9.67
2023-01-21T19:14:49.214Z,7.97
2023-01-21T19:17:25.781Z,8.43
2023-01-21T19:19:56.562Z,8.07
2023-01-21T19:22:23.842Z,7.80
2023-01-21T19:24:51.055Z,8.43
2023-01-21T19:27:30.100Z,8.63
2023-01-21T19:29:57.768Z,9.23
2023-01-21T19:32:25.200Z,9.27
2023-01-21T19:34:52.493Z,8.43
2023-01-21T19:37:23.123Z,8.53
2023-01-21T19:39:50.314Z,7.73
2023-01-21T19:42:18.144Z,8.77
2023-01-21T19:44:45.469Z,9.40
2023-01-21T19:47:19.483Z,9.33
2023-01-21T19:49:47.713Z,9.03
2023-01-21T19:52:15.484Z,8.67
2023-01-21T19:54:42.781Z,10.27
2023-01-21T19:57:15.207Z,7.50
2023-01-21T19:59:44.683Z,7.23
2023-01-21T20:02:12.791Z,8.93
2023-01-21T20:04:40.156Z,8.43
2023-01-21T20:07:11.432Z,9.83
2023-01-21T20:09:38.640Z,7.97
2023-01-21T20:12:06.838Z,8.37
2023-01-21T20:14:34.180Z,7.60
2023-01-21T20:17:02.898Z,5.90
2023-01-21T20:19:30.329Z,7.20
2023-01-21T20:22:02.374Z,6.00
2023-01-21T20:24:33.504Z,7.57
2023-01-21T20:27:03.029Z,7.03
2023-01-21T20:29:30.400Z,6.43
2023-01-21T20:31:58.393Z,6.90
2023-01-21T20:34:27.547Z,6.90
2023-01-21T20:36:55.502Z,7.13
2023-01-21T20:39:22.963Z,8.17
2023-01-21T20:41:50.368Z,7.47
2023-01-21T20:44:17.854Z,6.67
2023-01-21T20:46:45.788Z,6.40
2023-01-21T20:49:13.247Z,7.07
2023-01-21T20:51:40.561Z,6.37
2023-01-21T20:54:07.788Z,6.43
2023-01-21T20:56:35.320Z,6.97
2023-01-21T20:59:02.805Z,6.07
2023-01-21T21:01:34.469Z,6.43
2023-01-21T21:04:01.770Z,5.63
2023-01-21T21:06:29.244Z,6.10
2023-01-21T21:08:56.605Z,7.70
2023-01-21T21:11:23.987Z,5.83
2023-01-21T21:13:52.521Z,6.63
2023-01-21T21:16:22.094Z,5.40
2023-01-21T21:18:50.193Z,6.53
2023-01-21T21:21:20.612Z,5.70
2023-01-21T21:23:51.427Z,6.17
2023-01-21T21:26:24.871Z,6.60
2023-01-21T21:28:57.529Z,5.07
2023-01-21T21:31:30.072Z,5.97
2023-01-21T21:33:57.341Z,5.97
2023-01-21T21:36:24.964Z,5.63
2023-01-21T21:38:55.321Z,5.23
2023-01-21T21:41:43.502Z,5.67
2023-01-21T21:44:11.813Z,5.27
2023-01-21T21:46:58.428Z,5.03
2023-01-21T21:49:25.985Z,5.30
2023-01-21T21:51:53.741Z,5.30
2023-01-21T21:54:21.333Z,5.30
2023-01-21T21:56:49.090Z,5.20
2023-01-21T21:59:16.416Z,5.47
2023-01-21T22:01:44.127Z,5.47
2023-01-21T22:04:11.843Z,5.23
2023-01-21T22:06:39.387Z,6.10
2023-01-21T22:09:07.046Z,5.13
2023-01-21T22:11:34.794Z,5.27
2023-01-21T22:14:03.804Z,5.13
2023-01-21T22:16:31.725Z,5.27
2023-01-21T22:19:00.501Z,4.93
2023-01-21T22:21:33.267Z,4.83
2023-01-21T22:24:01.700Z,4.57
2023-01-21T22:26:29.679Z,6.13
2023-01-21T22:28:57.321Z,6.03
2023-01-21T22:31:27.605Z,5.80
2023-01-21T22:33:55.644Z,5.77
2023-01-21T22:36:24.933Z,5.53
2023-01-21T22:38:53.224Z,5.57
2023-01-21T22:41:22.963Z,5.27
2023-01-21T22:43:51.085Z,5.77
2023-01-21T22:46:27.116Z,5.67
2023-01-21T22:48:54.809Z,4.83
2023-01-21T22:51:22.978Z,5.70
2023-01-21T22:53:51.854Z,4.97
2023-01-21T22:56:35.417Z,4.73
2023-01-21T22:59:10.970Z,5.07
2023-01-21T23:01:38.543Z,4.97
2023-01-21T23:04:06.111Z,5.80
2023-01-21T23:06:33.911Z,5.60
2023-01-21T23:09:01.893Z,5.60
2023-01-21T23:11:29.891Z,5.77
2023-01-21T23:13:57.561Z,5.50
2023-01-21T23:16:25.030Z,6.27
2023-01-21T23:18:52.837Z,5.80
2023-01-21T23:21:21.992Z,5.73
2023-01-21T23:23:49.763Z,5.63
2023-01-21T23:26:19.102Z,5.23
2023-01-21T23:28:47.284Z,5.00
2023-01-21T23:31:17.152Z,5.33
2023-01-21T23:33:48.635Z,5.47
2023-01-21T23:36:16.147Z,5.53
2023-01-21T23:38:44.062Z,4.93
2023-01-21T23:41:13.582Z,6.33
2023-01-21T23:43:40.997Z,5.00
2023-01-21T23:46:16.190Z,5.90
2023-01-21T23:48:43.483Z,5.10
2023-01-21T23:51:13.436Z,5.07
2023-01-21T23:53:41.475Z,5.20
2023-01-21T23:56:14.646Z,5.17
2023-01-21T23:58:42.514Z,5.13
